sensor_id;sensor_type;location;lat;lon;timestamp;pressure;altitude;pressure_sealevel;temperature;humidity
28000;BME280;15328;50.860;10.562;2023-03-11T00:02:19;94682.28;;;0.83;72.50
28000;BME280;15328;50.860;10.562;2023-03-11T00:07:19;94692.34;;;0.86;71.50
28000;BME280;15328;50.860;10.562;2023-03-11T00:12:20;94702.44;;;0.82;71.03
28000;BME280;15328;50.860;10.562;2023-03-11T00:17:21;94720.56;;;0.90;70.62
28000;BME280;15328;50.860;10.562;2023-03-11T00:22:21;94734.03;;;0.87;70.62
28000;BME280;15328;50.860;10.562;2023-03-11T00:27:21;94751.53;;;0.80;69.57
28000;BME280;15328;50.860;10.562;2023-03-11T00:32:22;94751.13;;;0.77;69.58
28000;BME280;15328;50.860;10.562;2023-03-11T00:37:22;94756.34;;;0.77;69.51
28000;BME280;15328;50.860;10.562;2023-03-11T00:42:22;94785.94;;;0.71;68.55
28000;BME280;15328;50.860;10.562;2023-03-11T00:47:23;94806.47;;;0.67;68.26
28000;BME280;15328;50.860;10.562;2023-03-11T00:52:23;94811.91;;;0.66;67.79
28000;BME280;15328;50.860;10.562;2023-03-11T00:57:24;94838.91;;;0.73;67.96
28000;BME280;15328;50.860;10.562;2023-03-11T01:02:26;94871.13;;;0.73;67.74
28000;BME280;15328;50.860;10.562;2023-03-11T01:07:27;94872.75;;;0.74;67.88
28000;BME280;15328;50.860;10.562;2023-03-11T01:12:27;94894.59;;;1.01;67.56
28000;BME280;15328;50.860;10.562;2023-03-11T01:17:28;94886.53;;;0.96;67.65
28000;BME280;15328;50.860;10.562;2023-03-11T01:22:28;94917.31;;;0.87;67.73
28000;BME280;15328;50.860;10.562;2023-03-11T01:27:28;94914.91;;;0.92;66.87
28000;BME280;15328;50.860;10.562;2023-03-11T01:32:30;94910.31;;;1.01;65.91
28000;BME280;15328;50.860;10.562;2023-03-11T01:37:30;94911.97;;;0.68;64.65
28000;BME280;15328;50.860;10.562;2023-03-11T01:42:30;94914.22;;;0.71;63.98
28000;BME280;15328;50.860;10.562;2023-03-11T01:47:37;94915.19;;;0.63;63.70
28000;BME280;15328;50.860;10.562;2023-03-11T01:52:38;94919.56;;;0.56;63.46
28000;BME280;15328;50.860;10.562;2023-03-11T01:57:41;94920.59;;;0.61;63.75
28000;BME280;15328;50.860;10.562;2023-03-11T02:02:47;94942.16;;;0.64;62.20
28000;BME280;15328;50.860;10.562;2023-03-11T02:07:50;94970.19;;;0.70;62.84
28000;BME280;15328;50.860;10.562;2023-03-11T02:12:52;94963.56;;;0.74;62.75
28000;BME280;15328;50.860;10.562;2023-03-11T02:17:52;94988.91;;;0.73;64.00
28000;BME280;15328;50.860;10.562;2023-03-11T02:22:55;94986.72;;;0.77;64.21
28000;BME280;15328;50.860;10.562;2023-03-11T02:27:57;95006.06;;;0.76;63.42
28000;BME280;15328;50.860;10.562;2023-03-11T02:32:58;95001.34;;;0.65;62.54
28000;BME280;15328;50.860;10.562;2023-03-11T02:37:59;95002.78;;;0.67;62.62
28000;BME280;15328;50.860;10.562;2023-03-11T02:43:02;95007.97;;;0.60;62.89
28000;BME280;15328;50.860;10.562;2023-03-11T02:48:06;95015.59;;;0.55;63.81
28000;BME280;15328;50.860;10.562;2023-03-11T02:53:08;95020.69;;;0.64;63.84
28000;BME280;15328;50.860;10.562;2023-03-11T02:58:09;95046.84;;;0.64;63.29
28000;BME280;15328;50.860;10.562;2023-03-11T03:03:09;95045.09;;;0.71;62.92
28000;BME280;15328;50.860;10.562;2023-03-11T03:08:09;95055.78;;;0.48;61.67
28000;BME280;15328;50.860;10.562;2023-03-11T03:13:10;95067.97;;;0.62;62.12
28000;BME280;15328;50.860;10.562;2023-03-11T03:18:10;95066.47;;;0.53;61.34
28000;BME280;15328;50.860;10.562;2023-03-11T03:23:10;95074.13;;;0.54;61.56
28000;BME280;15328;50.860;10.562;2023-03-11T03:28:12;95088.97;;;0.47;59.92
28000;BME280;15328;50.860;10.562;2023-03-11T03:33:12;95100.44;;;0.46;59.72
28000;BME280;15328;50.860;10.562;2023-03-11T03:38:13;95115.66;;;0.57;60.65
28000;BME280;15328;50.860;10.562;2023-03-11T03:43:14;95121.91;;;0.56;60.65
28000;BME280;15328;50.860;10.562;2023-03-11T03:48:15;95121.50;;;0.59;60.55
28000;BME280;15328;50.860;10.562;2023-03-11T03:53:15;95139.28;;;0.64;60.52
28000;BME280;15328;50.860;10.562;2023-03-11T03:58:15;95153.78;;;0.67;61.49
28000;BME280;15328;50.860;10.562;2023-03-11T04:03:16;95166.69;;;0.68;60.55
28000;BME280;15328;50.860;10.562;2023-03-11T04:08:16;95178.44;;;0.79;60.47
28000;BME280;15328;50.860;10.562;2023-03-11T04:13:16;95181.00;;;0.72;60.66
28000;BME280;15328;50.860;10.562;2023-03-11T04:18:17;95194.47;;;0.69;60.96
28000;BME280;15328;50.860;10.562;2023-03-11T04:23:17;95199.97;;;0.74;61.43
28000;BME280;15328;50.860;10.562;2023-03-11T04:28:17;95196.34;;;0.75;61.55
28000;BME280;15328;50.860;10.562;2023-03-11T04:33:19;95196.47;;;0.67;61.25
28000;BME280;15328;50.860;10.562;2023-03-11T04:38:19;95198.16;;;0.75;61.58
28000;BME280;15328;50.860;10.562;2023-03-11T04:43:19;95203.81;;;0.78;62.05
28000;BME280;15328;50.860;10.562;2023-03-11T04:48:20;95206.63;;;0.77;60.72
28000;BME280;15328;50.860;10.562;2023-03-11T04:53:21;95231.19;;;0.76;61.61
28000;BME280;15328;50.860;10.562;2023-03-11T04:58:21;95243.28;;;0.77;61.44
28000;BME280;15328;50.860;10.562;2023-03-11T05:03:22;95249.47;;;0.54;60.50
28000;BME280;15328;50.860;10.562;2023-03-11T05:08:23;95256.06;;;0.65;60.69
28000;BME280;15328;50.860;10.562;2023-03-11T05:13:23;95247.03;;;0.68;61.37
28000;BME280;15328;50.860;10.562;2023-03-11T05:18:24;95243.16;;;0.64;61.68
28000;BME280;15328;50.860;10.562;2023-03-11T05:23:24;95267.34;;;0.66;61.36
28000;BME280;15328;50.860;10.562;2023-03-11T05:28:24;95264.91;;;0.64;61.69
28000;BME280;15328;50.860;10.562;2023-03-11T05:33:25;95288.09;;;0.67;62.06
28000;BME280;15328;50.860;10.562;2023-03-11T05:38:25;95293.88;;;0.63;61.96
28000;BME280;15328;50.860;10.562;2023-03-11T05:43:25;95298.75;;;0.66;62.39
28000;BME280;15328;50.860;10.562;2023-03-11T05:48:26;95282.41;;;0.64;62.75
28000;BME280;15328;50.860;10.562;2023-03-11T05:53:26;95289.72;;;0.68;62.38
28000;BME280;15328;50.860;10.562;2023-03-11T05:58:28;95303.00;;;0.67;63.46
28000;BME280;15328;50.860;10.562;2023-03-11T06:03:28;95294.06;;;0.61;64.19
28000;BME280;15328;50.860;10.562;2023-03-11T06:08:29;95305.34;;;0.61;64.23
28000;BME280;15328;50.860;10.562;2023-03-11T06:13:30;95313.38;;;0.60;64.13
28000;BME280;15328;50.860;10.562;2023-03-11T06:18:30;95325.56;;;0.68;64.33
28000;BME280;15328;50.860;10.562;2023-03-11T06:23:30;95339.00;;;0.65;64.53
28000;BME280;15328;50.860;10.562;2023-03-11T06:28:31;95344.69;;;0.53;64.66
28000;BME280;15328;50.860;10.562;2023-03-11T06:33:32;95350.09;;;0.52;66.46
28000;BME280;15328;50.860;10.562;2023-03-11T06:38:33;95359.88;;;0.58;66.50
28000;BME280;15328;50.860;10.562;2023-03-11T06:43:34;95369.25;;;0.52;67.57
28000;BME280;15328;50.860;10.562;2023-03-11T06:48:34;95382.44;;;0.59;67.31
28000;BME280;15328;50.860;10.562;2023-03-11T06:53:35;95382.63;;;0.57;67.94
28000;BME280;15328;50.860;10.562;2023-03-11T06:58:37;95383.78;;;0.70;67.46
28000;BME280;15328;50.860;10.562;2023-03-11T07:03:38;95383.13;;;0.68;66.99
28000;BME280;15328;50.860;10.562;2023-03-11T07:08:38;95391.44;;;0.71;65.33
28000;BME280;15328;50.860;10.562;2023-03-11T07:13:38;95406.41;;;0.77;65.30
28000;BME280;15328;50.860;10.562;2023-03-11T07:18:39;95414.56;;;0.82;65.32
28000;BME280;15328;50.860;10.562;2023-03-11T07:23:40;95429.16;;;0.77;64.77
28000;BME280;15328;50.860;10.562;2023-03-11T07:28:41;95440.63;;;0.76;65.16
28000;BME280;15328;50.860;10.562;2023-03-11T07:33:41;95443.69;;;0.79;65.42
28000;BME280;15328;50.860;10.562;2023-03-11T07:38:43;95440.56;;;0.84;65.25
28000;BME280;15328;50.860;10.562;2023-03-11T07:43:43;95453.56;;;0.92;65.73
28000;BME280;15328;50.860;10.562;2023-03-11T07:48:44;95465.47;;;0.95;64.78
28000;BME280;15328;50.860;10.562;2023-03-11T07:53:45;95471.34;;;0.97;65.50
28000;BME280;15328;50.860;10.562;2023-03-11T07:58:46;95487.31;;;1.02;64.41
28000;BME280;15328;50.860;10.562;2023-03-11T08:03:48;95482.25;;;1.15;63.39
28000;BME280;15328;50.860;10.562;2023-03-11T08:08:50;95496.44;;;1.20;64.01
28000;BME280;15328;50.860;10.562;2023-03-11T08:13:51;95497.88;;;1.38;63.29
28000;BME280;15328;50.860;10.562;2023-03-11T08:18:53;95505.25;;;1.49;62.32
28000;BME280;15328;50.860;10.562;2023-03-11T08:23:57;95511.50;;;1.33;60.68
28000;BME280;15328;50.860;10.562;2023-03-11T08:28:58;95529.78;;;1.77;60.68
28000;BME280;15328;50.860;10.562;2023-03-11T08:34:01;95530.28;;;1.88;59.95
28000;BME280;15328;50.860;10.562;2023-03-11T08:39:02;95528.50;;;2.09;58.71
28000;BME280;15328;50.860;10.562;2023-03-11T08:44:03;95533.06;;;2.22;57.35
28000;BME280;15328;50.860;10.562;2023-03-11T08:49:04;95545.19;;;2.23;57.69
28000;BME280;15328;50.860;10.562;2023-03-11T08:54:05;95553.69;;;2.25;56.32
28000;BME280;15328;50.860;10.562;2023-03-11T08:59:05;95569.81;;;2.22;55.16
28000;BME280;15328;50.860;10.562;2023-03-11T09:04:07;95576.84;;;2.43;55.59
28000;BME280;15328;50.860;10.562;2023-03-11T09:09:10;95591.41;;;2.67;55.18
28000;BME280;15328;50.860;10.562;2023-03-11T09:14:10;95588.19;;;3.21;51.81
28000;BME280;15328;50.860;10.562;2023-03-11T09:19:11;95589.13;;;4.43;50.18
28000;BME280;15328;50.860;10.562;2023-03-11T09:24:11;95593.19;;;5.45;47.83
28000;BME280;15328;50.860;10.562;2023-03-11T09:29:11;95602.91;;;5.57;43.44
28000;BME280;15328;50.860;10.562;2023-03-11T09:34:12;95603.16;;;5.10;44.07
28000;BME280;15328;50.860;10.562;2023-03-11T09:39:12;95624.81;;;4.52;45.55
28000;BME280;15328;50.860;10.562;2023-03-11T09:44:36;95617.97;;;4.10;46.38
28000;BME280;15328;50.860;10.562;2023-03-11T10:00:33;95629.59;;;3.81;48.17
28000;BME280;15328;50.860;10.562;2023-03-11T10:05:33;95632.47;;;3.52;47.87
28000;BME280;15328;50.860;10.562;2023-03-11T10:10:40;95640.50;;;3.37;48.83
28000;BME280;15328;50.860;10.562;2023-03-11T10:16:01;95643.81;;;3.24;49.85
28000;BME280;15328;50.860;10.562;2023-03-11T10:26:33;95665.81;;;2.95;50.17
28000;BME280;15328;50.860;10.562;2023-03-11T10:31:41;95661.72;;;2.86;51.04
28000;BME280;15328;50.860;10.562;2023-03-11T10:36:51;95667.34;;;2.83;51.47
28000;BME280;15328;50.860;10.562;2023-03-11T10:41:54;95673.97;;;2.79;52.37
28000;BME280;15328;50.860;10.562;2023-03-11T10:46:56;95670.44;;;2.72;51.87
28000;BME280;15328;50.860;10.562;2023-03-11T10:51:57;95668.28;;;2.75;52.58
28000;BME280;15328;50.860;10.562;2023-03-11T10:57:00;95676.59;;;2.79;52.17
28000;BME280;15328;50.860;10.562;2023-03-11T11:02:24;95682.91;;;2.85;52.04
28000;BME280;15328;50.860;10.562;2023-03-11T11:12:33;95679.66;;;3.04;52.16
28000;BME280;15328;50.860;10.562;2023-03-11T11:17:34;95686.94;;;3.02;51.92
28000;BME280;15328;50.860;10.562;2023-03-11T11:22:34;95694.38;;;3.26;51.73
28000;BME280;15328;50.860;10.562;2023-03-11T11:27:34;95692.22;;;3.58;51.76
28000;BME280;15328;50.860;10.562;2023-03-11T11:32:35;95695.69;;;3.65;50.68
28000;BME280;15328;50.860;10.562;2023-03-11T11:37:42;95691.44;;;3.64;51.09
28000;BME280;15328;50.860;10.562;2023-03-11T11:42:46;95708.69;;;3.45;50.60
28000;BME280;15328;50.860;10.562;2023-03-11T11:47:51;95711.94;;;3.47;50.59
28000;BME280;15328;50.860;10.562;2023-03-11T11:53:22;95706.91;;;3.52;51.28
28000;BME280;15328;50.860;10.562;2023-03-11T11:58:24;95697.50;;;3.36;50.67
28000;BME280;15328;50.860;10.562;2023-03-11T12:19:43;95707.59;;;3.33;51.83
28000;BME280;15328;50.860;10.562;2023-03-11T12:30:05;95706.16;;;3.30;51.14
28000;BME280;15328;50.860;10.562;2023-03-11T12:45:49;95717.50;;;3.31;50.30
28000;BME280;15328;50.860;10.562;2023-03-11T12:50:49;95715.09;;;3.36;50.05
28000;BME280;15328;50.860;10.562;2023-03-11T13:01:46;95713.88;;;3.60;50.61
28000;BME280;15328;50.860;10.562;2023-03-11T13:07:11;95715.34;;;3.69;50.43
28000;BME280;15328;50.860;10.562;2023-03-11T13:12:47;95719.44;;;3.78;49.89
28000;BME280;15328;50.860;10.562;2023-03-11T13:17:57;95723.03;;;3.70;49.05
28000;BME280;15328;50.860;10.562;2023-03-11T13:34:16;95749.50;;;3.90;48.79
28000;BME280;15328;50.860;10.562;2023-03-11T13:44:34;95754.66;;;3.77;48.27
28000;BME280;15328;50.860;10.562;2023-03-11T13:54:46;95760.91;;;3.76;47.86
28000;BME280;15328;50.860;10.562;2023-03-11T13:59:51;95762.13;;;3.73;48.13
28000;BME280;15328;50.860;10.562;2023-03-11T14:04:56;95757.91;;;3.79;47.70
28000;BME280;15328;50.860;10.562;2023-03-11T14:10:18;95777.53;;;3.77;47.65
28000;BME280;15328;50.860;10.562;2023-03-11T14:15:23;95770.88;;;3.81;48.12
28000;BME280;15328;50.860;10.562;2023-03-11T14:20:25;95779.75;;;3.80;47.30
28000;BME280;15328;50.860;10.562;2023-03-11T14:25:28;95771.97;;;3.93;47.64
28000;BME280;15328;50.860;10.562;2023-03-11T14:30:32;95778.91;;;4.00;47.58
28000;BME280;15328;50.860;10.562;2023-03-11T14:35:33;95794.94;;;4.06;47.02
28000;BME280;15328;50.860;10.562;2023-03-11T14:40:35;95793.72;;;4.08;46.68
28000;BME280;15328;50.860;10.562;2023-03-11T14:45:41;95795.03;;;4.19;45.16
28000;BME280;15328;50.860;10.562;2023-03-11T14:50:43;95806.03;;;4.29;45.52
28000;BME280;15328;50.860;10.562;2023-03-11T14:55:59;95809.59;;;4.49;45.85
28000;BME280;15328;50.860;10.562;2023-03-11T15:01:12;95812.84;;;4.51;44.93
28000;BME280;15328;50.860;10.562;2023-03-11T15:06:16;95813.34;;;4.33;44.57
28000;BME280;15328;50.860;10.562;2023-03-11T15:11:20;95811.44;;;4.21;44.35
28000;BME280;15328;50.860;10.562;2023-03-11T15:21:23;95810.69;;;4.33;44.30
28000;BME280;15328;50.860;10.562;2023-03-11T15:26:29;95813.31;;;4.27;44.35
28000;BME280;15328;50.860;10.562;2023-03-11T15:31:35;95813.16;;;4.07;43.98
28000;BME280;15328;50.860;10.562;2023-03-11T15:36:39;95806.38;;;3.91;44.21
28000;BME280;15328;50.860;10.562;2023-03-11T15:41:46;95814.97;;;3.79;43.97
28000;BME280;15328;50.860;10.562;2023-03-11T15:46:46;95808.81;;;3.65;44.55
28000;BME280;15328;50.860;10.562;2023-03-11T15:51:47;95818.66;;;3.56;45.06
28000;BME280;15328;50.860;10.562;2023-03-11T15:56:47;95831.97;;;3.55;45.38
28000;BME280;15328;50.860;10.562;2023-03-11T16:01:48;95838.16;;;3.47;45.67
28000;BME280;15328;50.860;10.562;2023-03-11T16:06:48;95830.84;;;3.42;45.22
28000;BME280;15328;50.860;10.562;2023-03-11T16:11:49;95835.81;;;3.31;45.51
28000;BME280;15328;50.860;10.562;2023-03-11T16:16:49;95841.34;;;3.21;45.74
28000;BME280;15328;50.860;10.562;2023-03-11T16:21:49;95847.09;;;3.10;45.79
28000;BME280;15328;50.860;10.562;2023-03-11T16:26:50;95852.47;;;3.02;46.27
28000;BME280;15328;50.860;10.562;2023-03-11T16:31:52;95859.19;;;2.90;47.56
28000;BME280;15328;50.860;10.562;2023-03-11T16:36:54;95866.38;;;2.81;48.70
28000;BME280;15328;50.860;10.562;2023-03-11T16:41:54;95867.25;;;2.73;48.66
28000;BME280;15328;50.860;10.562;2023-03-11T16:46:55;95876.97;;;2.58;49.56
28000;BME280;15328;50.860;10.562;2023-03-11T16:51:55;95888.81;;;2.39;49.63
28000;BME280;15328;50.860;10.562;2023-03-11T16:56:55;95895.34;;;2.29;50.41
28000;BME280;15328;50.860;10.562;2023-03-11T17:01:56;95888.69;;;2.18;51.53
28000;BME280;15328;50.860;10.562;2023-03-11T17:06:56;95888.41;;;2.13;52.12
28000;BME280;15328;50.860;10.562;2023-03-11T17:11:56;95888.50;;;2.05;51.69
28000;BME280;15328;50.860;10.562;2023-03-11T17:16:57;95893.88;;;1.89;53.41
28000;BME280;15328;50.860;10.562;2023-03-11T17:21:58;95889.97;;;1.84;53.08
28000;BME280;15328;50.860;10.562;2023-03-11T17:26:58;95899.38;;;1.79;52.89
28000;BME280;15328;50.860;10.562;2023-03-11T17:31:59;95901.28;;;1.62;54.05
28000;BME280;15328;50.860;10.562;2023-03-11T17:37:00;95903.63;;;1.57;54.80
28000;BME280;15328;50.860;10.562;2023-03-11T17:42:00;95910.56;;;1.50;54.79
28000;BME280;15328;50.860;10.562;2023-03-11T17:47:01;95912.25;;;1.43;54.30
28000;BME280;15328;50.860;10.562;2023-03-11T17:52:01;95920.69;;;1.30;55.38
28000;BME280;15328;50.860;10.562;2023-03-11T17:57:01;95931.03;;;1.23;55.28
28000;BME280;15328;50.860;10.562;2023-03-11T18:02:02;95931.91;;;1.16;55.90
28000;BME280;15328;50.860;10.562;2023-03-11T18:07:02;95938.50;;;1.04;55.80
28000;BME280;15328;50.860;10.562;2023-03-11T18:12:03;95942.63;;;0.98;56.14
28000;BME280;15328;50.860;10.562;2023-03-11T18:17:03;95939.03;;;0.91;56.00
28000;BME280;15328;50.860;10.562;2023-03-11T18:22:04;95938.09;;;0.84;56.28
28000;BME280;15328;50.860;10.562;2023-03-11T18:27:04;95945.97;;;0.76;57.48
28000;BME280;15328;50.860;10.562;2023-03-11T18:32:04;95940.25;;;0.72;57.77
28000;BME280;15328;50.860;10.562;2023-03-11T18:37:05;95937.50;;;0.66;57.58
28000;BME280;15328;50.860;10.562;2023-03-11T18:42:05;95945.22;;;0.59;57.63
28000;BME280;15328;50.860;10.562;2023-03-11T18:47:07;95951.59;;;0.48;58.58
28000;BME280;15328;50.860;10.562;2023-03-11T18:52:08;95943.75;;;0.48;58.16
28000;BME280;15328;50.860;10.562;2023-03-11T18:57:08;95947.88;;;0.35;57.97
28000;BME280;15328;50.860;10.562;2023-03-11T19:02:09;95963.56;;;0.35;58.52
28000;BME280;15328;50.860;10.562;2023-03-11T19:07:10;95960.78;;;0.20;58.25
28000;BME280;15328;50.860;10.562;2023-03-11T19:12:10;95958.19;;;0.12;58.41
28000;BME280;15328;50.860;10.562;2023-03-11T19:17:11;95962.28;;;0.06;58.63
28000;BME280;15328;50.860;10.562;2023-03-11T19:22:12;95975.53;;;0.05;58.50
28000;BME280;15328;50.860;10.562;2023-03-11T19:27:12;95975.19;;;-0.01;58.91
28000;BME280;15328;50.860;10.562;2023-03-11T19:32:12;95977.47;;;-0.14;59.26
28000;BME280;15328;50.860;10.562;2023-03-11T19:37:13;95973.41;;;-0.16;58.74
28000;BME280;15328;50.860;10.562;2023-03-11T19:42:16;95974.22;;;-0.24;58.85
28000;BME280;15328;50.860;10.562;2023-03-11T19:47:17;95976.00;;;-0.24;58.33
28000;BME280;15328;50.860;10.562;2023-03-11T19:52:17;95975.84;;;-0.23;58.59
28000;BME280;15328;50.860;10.562;2023-03-11T19:57:17;95980.72;;;-0.36;58.47
28000;BME280;15328;50.860;10.562;2023-03-11T20:02:18;95982.50;;;-0.37;58.48
28000;BME280;15328;50.860;10.562;2023-03-11T20:07:18;95987.91;;;-0.38;58.27
28000;BME280;15328;50.860;10.562;2023-03-11T20:12:19;95984.28;;;-0.53;59.04
28000;BME280;15328;50.860;10.562;2023-03-11T20:17:19;95993.72;;;-0.60;59.45
28000;BME280;15328;50.860;10.562;2023-03-11T20:22:20;95999.78;;;-0.60;59.05
28000;BME280;15328;50.860;10.562;2023-03-11T20:27:20;95996.34;;;-0.60;59.62
28000;BME280;15328;50.860;10.562;2023-03-11T20:32:20;95990.94;;;-0.67;60.62
28000;BME280;15328;50.860;10.562;2023-03-11T20:37:21;95989.31;;;-0.68;60.49
28000;BME280;15328;50.860;10.562;2023-03-11T20:42:21;95980.78;;;-0.78;60.29
28000;BME280;15328;50.860;10.562;2023-03-11T20:47:21;95974.91;;;-0.80;59.38
28000;BME280;15328;50.860;10.562;2023-03-11T20:52:22;95975.69;;;-0.88;59.49
28000;BME280;15328;50.860;10.562;2023-03-11T20:57:22;95980.44;;;-0.83;59.91
28000;BME280;15328;50.860;10.562;2023-03-11T21:02:23;96001.47;;;-0.85;59.24
28000;BME280;15328;50.860;10.562;2023-03-11T21:07:23;95998.72;;;-0.83;60.05
28000;BME280;15328;50.860;10.562;2023-03-11T21:12:24;95998.25;;;-0.79;59.97
28000;BME280;15328;50.860;10.562;2023-03-11T21:17:24;95999.84;;;-0.86;59.80
28000;BME280;15328;50.860;10.562;2023-03-11T21:22:25;96009.75;;;-0.98;60.39
28000;BME280;15328;50.860;10.562;2023-03-11T21:27:25;95999.00;;;-0.95;60.02
28000;BME280;15328;50.860;10.562;2023-03-11T21:32:27;96002.88;;;-1.07;60.02
28000;BME280;15328;50.860;10.562;2023-03-11T21:37:27;96002.09;;;-0.99;58.96
28000;BME280;15328;50.860;10.562;2023-03-11T21:42:28;96001.44;;;-1.01;59.33
28000;BME280;15328;50.860;10.562;2023-03-11T21:47:29;96002.09;;;-0.99;59.78
28000;BME280;15328;50.860;10.562;2023-03-11T21:52:29;96021.38;;;-0.92;59.67
28000;BME280;15328;50.860;10.562;2023-03-11T21:57:29;96017.13;;;-0.93;59.83
28000;BME280;15328;50.860;10.562;2023-03-11T22:02:30;96018.59;;;-0.90;59.02
28000;BME280;15328;50.860;10.562;2023-03-11T22:07:30;96022.03;;;-0.90;58.76
28000;BME280;15328;50.860;10.562;2023-03-11T22:12:31;96023.50;;;-0.87;59.08
28000;BME280;15328;50.860;10.562;2023-03-11T22:17:31;96019.41;;;-0.90;59.22
28000;BME280;15328;50.860;10.562;2023-03-11T22:22:32;96022.03;;;-0.90;58.38
28000;BME280;15328;50.860;10.562;2023-03-11T22:27:32;96025.47;;;-0.89;59.18
28000;BME280;15328;50.860;10.562;2023-03-11T22:32:34;96026.13;;;-0.87;58.53
28000;BME280;15328;50.860;10.562;2023-03-11T22:37:34;96023.66;;;-0.89;59.38
28000;BME280;15328;50.860;10.562;2023-03-11T22:42:35;96030.84;;;-0.91;58.68
28000;BME280;15328;50.860;10.562;2023-03-11T22:47:36;96027.56;;;-0.93;58.88
28000;BME280;15328;50.860;10.562;2023-03-11T22:52:36;96025.31;;;-0.88;58.97
28000;BME280;15328;50.860;10.562;2023-03-11T22:57:37;96022.03;;;-0.90;58.92
28000;BME280;15328;50.860;10.562;2023-03-11T23:02:37;96024.13;;;-0.94;57.95
28000;BME280;15328;50.860;10.562;2023-03-11T23:07:38;96026.59;;;-0.92;58.22
28000;BME280;15328;50.860;10.562;2023-03-11T23:12:39;96032.78;;;-0.93;57.88
28000;BME280;15328;50.860;10.562;2023-03-11T23:17:40;96034.75;;;-0.95;58.26
28000;BME280;15328;50.860;10.562;2023-03-11T23:22:42;96039.81;;;-0.94;58.25
28000;BME280;15328;50.860;10.562;2023-03-11T23:27:44;96031.00;;;-0.93;57.74
28000;BME280;15328;50.860;10.562;2023-03-11T23:32:44;96043.72;;;-0.98;58.46
28000;BME280;15328;50.860;10.562;2023-03-11T23:37:49;96036.03;;;-0.99;58.39
28000;BME280;15328;50.860;10.562;2023-03-11T23:42:49;96037.34;;;-0.95;58.20
28000;BME280;15328;50.860;10.562;2023-03-11T23:47:50;96027.25;;;-0.90;57.67
28000;BME280;15328;50.860;10.562;2023-03-11T23:52:50;96028.56;;;-0.86;57.40
28000;BME280;15328;50.860;10.562;2023-03-11T23:57:51;96028.13;;;-0.81;57.40
